Here is the Quick Look data you requested

The Data originates at the National Weather Service, and is made available here by the UAlbany Department of Atmospheric and Environmental Sciences

Surface Observations

KBDL 142051Z 30015G23KT 10SM FEW047 M05/M16 A2984 RMK AO2 PK WND 28027/2041
 SLP106 T10501161 53041=
KBDR 142052Z 31011KT 10SM CLR M01/M11 A2985 RMK AO2 SLP107 T10111111 53039=
KDXR 142053Z 27009G19KT 10SM FEW050 M03/M14 A2985 RMK AO2 SLP112 T10281139
 53039=
KGON 142056Z 32010KT 10SM CLR M02/M13 A2982 RMK AO2 SLP098 60000 T10221133
 53040=
KHFD 142053Z 29009G18KT 10SM CLR M03/M15 A2985 RMK AO2 SLP107 T10281150 53041=
KHVN 142053Z 31009G17KT 10SM CLR M02/M12 A2984 RMK AO2 SLP105 T10171117 53040=
KIJD 142052Z AUTO 30010G22KT 10SM CLR M03/M16 A2983 RMK AO2 SLP103 60000
 T10331161 53042=
KMMK 142053Z AUTO 30012KT 10SM CLR M03/M14 A2984 RMK AO2 SLP106 T10281144 53039=
KOXC 142051Z 31007KT 250V330 10SM FEW030 M03/M13 A2981 RMK AO2 SLP116 T10331133
 53036=